Golden Acres, Texas
Current Conditions -  °F | °C
As of 4:50 PM on Wednesday 26 Nov 2014 (Local Time) from KEFD Reporting Station
Clear Clear  
Wind Chill: 70°   Ceiling: Unl
Heat Index: 70°   Visibility: 10mi
Dew Point: 36°   Wind: 12mph
Humidity: 28%   Direction: 210°SSW
Pressure: 30.21"   Gusts: NA
Location:  29.6998°N, 95.1579°W
Report Text: KEFD 262250Z 21010KT 10SM CLR 21/02 A3021
Loading
Personal Weather Stations






























Interactive Weather Map New forecast layout! Learn more

10-Day Weather Forecast

Advertisements
Track Severe Weather on mobile